createdAt,value
2019-03-31T00:00:07.241Z,10.00
2019-03-31T00:02:38.153Z,10.00
2019-03-31T00:05:08.400Z,10.00
2019-03-31T00:07:37.769Z,10.10
2019-03-31T00:10:07.986Z,10.10
2019-03-31T00:12:37.278Z,9.90
2019-03-31T00:15:08.121Z,9.80
2019-03-31T00:17:37.415Z,9.70
2019-03-31T00:20:06.913Z,9.80
2019-03-31T00:22:36.197Z,9.80
2019-03-31T00:25:06.637Z,9.70
2019-03-31T00:27:36.889Z,9.80
2019-03-31T00:30:06.693Z,9.80
2019-03-31T00:32:35.986Z,9.80
2019-03-31T00:35:05.326Z,9.80
2019-03-31T00:37:34.625Z,9.80
2019-03-31T00:40:06.129Z,9.80
2019-03-31T00:42:35.418Z,9.80
2019-03-31T00:45:08.897Z,9.70
2019-03-31T00:47:38.187Z,9.50
2019-03-31T00:50:07.597Z,9.50
2019-03-31T00:52:36.891Z,9.60
2019-03-31T00:55:06.397Z,9.60
2019-03-31T00:57:35.705Z,11.60
2019-03-31T01:00:07.937Z,9.50
2019-03-31T01:02:38.919Z,9.30
2019-03-31T01:05:08.261Z,9.10
2019-03-31T01:07:37.687Z,8.10
2019-03-31T01:10:07.939Z,8.90
2019-03-31T01:12:37.913Z,9.00
2019-03-31T01:15:10.637Z,9.00
2019-03-31T01:17:40.090Z,9.10
2019-03-31T01:20:09.492Z,9.30
2019-03-31T01:22:38.862Z,9.50
2019-03-31T01:25:09.324Z,9.60
2019-03-31T01:27:38.666Z,9.60
2019-03-31T01:30:09.837Z,9.30
2019-03-31T01:32:40.413Z,9.10
2019-03-31T01:35:10.440Z,8.90
2019-03-31T01:37:39.777Z,8.90
2019-03-31T01:40:09.129Z,8.90
2019-03-31T01:42:38.397Z,8.90
2019-03-31T01:45:08.289Z,8.80
2019-03-31T01:47:37.689Z,8.80
2019-03-31T01:50:10.217Z,8.80
2019-03-31T01:52:39.489Z,8.80
2019-03-31T01:55:09.314Z,8.70
2019-03-31T01:57:38.582Z,8.70
2019-03-31T02:00:11.322Z,8.70
2019-03-31T02:02:41.558Z,8.50
2019-03-31T02:05:10.926Z,8.60
2019-03-31T02:07:40.185Z,8.70
2019-03-31T02:10:09.485Z,8.70
2019-03-31T02:12:38.817Z,8.70
2019-03-31T02:15:08.262Z,8.60
2019-03-31T02:17:37.529Z,8.50
2019-03-31T02:20:07.378Z,8.40
2019-03-31T02:22:36.717Z,8.20
2019-03-31T02:25:06.344Z,8.20
2019-03-31T02:27:35.613Z,8.10
2019-03-31T02:30:06.513Z,8.20
2019-03-31T02:32:35.793Z,8.20
2019-03-31T02:35:05.814Z,8.10
2019-03-31T02:37:35.084Z,7.90
2019-03-31T02:40:05.615Z,7.80
2019-03-31T02:42:35.858Z,7.80
2019-03-31T02:45:07.229Z,7.90
2019-03-31T02:47:36.497Z,8.20
2019-03-31T02:50:06.956Z,8.30
2019-03-31T02:52:36.274Z,8.10
2019-03-31T02:55:06.609Z,8.00
2019-03-31T02:57:37.495Z,8.10
2019-03-31T03:00:07.543Z,8.10
2019-03-31T03:02:41.910Z,8.00
2019-03-31T03:05:19.876Z,8.00
2019-03-31T03:07:44.634Z,7.90
2019-03-31T03:10:13.994Z,8.10
2019-03-31T03:12:44.962Z,8.20
2019-03-31T03:15:17.352Z,8.20
2019-03-31T03:17:46.640Z,8.00
2019-03-31T03:20:33.276Z,7.90
2019-03-31T03:23:20.037Z,7.90
2019-03-31T03:26:06.809Z,7.90
2019-03-31T03:28:53.593Z,8.20
2019-03-31T03:31:40.209Z,8.20
2019-03-31T03:34:27.010Z,8.00
2019-03-31T03:37:13.613Z,7.80
2019-03-31T03:40:00.477Z,7.80
2019-03-31T03:42:47.916Z,7.70
2019-03-31T03:45:34.474Z,7.60
2019-03-31T03:48:21.072Z,7.60
2019-03-31T03:51:07.831Z,7.60
2019-03-31T03:53:54.365Z,7.50
2019-03-31T03:56:41.229Z,7.30
2019-03-31T03:59:28.001Z,7.30
2019-03-31T04:02:14.496Z,7.40
2019-03-31T04:05:01.115Z,7.40
2019-03-31T04:07:47.874Z,7.20
2019-03-31T04:10:34.689Z,7.20
2019-03-31T04:13:21.268Z,7.20
2019-03-31T04:16:07.749Z,7.10
2019-03-31T04:18:54.513Z,7.10
2019-03-31T04:21:41.132Z,6.90
2019-03-31T04:24:27.623Z,6.90
2019-03-31T04:27:18.700Z,6.90
2019-03-31T04:30:03.033Z,7.00
2019-03-31T04:32:49.742Z,7.00
2019-03-31T04:35:36.503Z,6.90
2019-03-31T04:38:23.018Z,6.80
2019-03-31T04:41:09.585Z,6.70
2019-03-31T04:43:56.064Z,6.70
2019-03-31T04:46:42.637Z,6.80
2019-03-31T04:49:29.185Z,6.90
2019-03-31T04:52:16.005Z,6.90
2019-03-31T04:55:02.514Z,6.80
2019-03-31T04:57:49.314Z,6.70
2019-03-31T05:00:36.061Z,6.70
2019-03-31T05:03:22.549Z,6.70
2019-03-31T05:06:09.132Z,6.70
2019-03-31T05:08:55.609Z,6.90
2019-03-31T05:11:42.451Z,6.80
2019-03-31T05:14:28.994Z,6.80
2019-03-31T05:17:15.533Z,6.70
2019-03-31T05:20:02.244Z,6.80
2019-03-31T05:22:48.762Z,6.70
2019-03-31T05:25:35.229Z,6.70
2019-03-31T05:28:21.992Z,6.80
2019-03-31T05:31:08.529Z,7.20
2019-03-31T05:33:55.051Z,7.40
2019-03-31T05:36:41.581Z,7.50
2019-03-31T05:39:28.053Z,8.20
2019-03-31T05:42:14.625Z,9.20
2019-03-31T05:45:01.162Z,10.10
2019-03-31T05:47:47.957Z,10.90
2019-03-31T05:50:34.467Z,12.20
2019-03-31T05:53:21.033Z,13.00
2019-03-31T05:56:07.797Z,13.50
2019-03-31T05:58:54.262Z,14.00
2019-03-31T06:01:40.896Z,14.20
2019-03-31T06:04:33.487Z,14.60
2019-03-31T06:07:15.565Z,15.10
2019-03-31T06:10:02.349Z,15.20
2019-03-31T06:12:48.870Z,15.30
2019-03-31T06:15:35.329Z,15.80
2019-03-31T06:18:22.171Z,16.10
2019-03-31T06:21:08.761Z,15.70
2019-03-31T06:23:55.449Z,16.20
2019-03-31T06:26:42.069Z,17.10
2019-03-31T06:29:28.866Z,18.20
2019-03-31T06:32:15.398Z,19.70
2019-03-31T06:35:02.250Z,20.90
2019-03-31T06:37:49.033Z,22.50
2019-03-31T06:40:35.581Z,24.00
2019-03-31T06:43:22.386Z,24.40
2019-03-31T06:46:08.907Z,24.60
2019-03-31T06:48:55.672Z,23.90
2019-03-31T06:51:42.267Z,23.10
2019-03-31T06:54:28.777Z,23.00
2019-03-31T06:57:15.551Z,23.50
2019-03-31T07:00:02.249Z,24.30
2019-03-31T07:02:48.857Z,25.30
2019-03-31T07:05:35.336Z,24.50
2019-03-31T07:08:21.941Z,23.50
2019-03-31T07:11:08.473Z,22.30
2019-03-31T07:13:55.257Z,21.20
2019-03-31T07:16:42.082Z,21.60
2019-03-31T07:19:28.905Z,20.90
2019-03-31T07:22:15.334Z,21.80
2019-03-31T07:25:01.917Z,22.20
2019-03-31T07:27:48.494Z,22.30
2019-03-31T07:30:35.257Z,21.80
2019-03-31T07:33:21.800Z,21.60
2019-03-31T07:36:08.590Z,23.40
2019-03-31T07:38:56.171Z,25.40
2019-03-31T07:41:42.815Z,26.10
2019-03-31T07:44:30.717Z,25.40
2019-03-31T07:47:17.277Z,25.30
2019-03-31T07:50:04.791Z,26.20
2019-03-31T07:52:51.437Z,25.60
2019-03-31T07:55:38.278Z,25.40
2019-03-31T07:58:25.095Z,26.50
2019-03-31T08:01:11.738Z,27.40
2019-03-31T08:03:58.258Z,27.40
2019-03-31T08:06:44.785Z,29.10
2019-03-31T08:09:31.705Z,30.50
2019-03-31T08:12:18.215Z,31.30
2019-03-31T08:15:04.991Z,31.50
2019-03-31T08:17:51.863Z,31.60
2019-03-31T08:20:39.502Z,31.10
2019-03-31T08:23:26.261Z,31.20
2019-03-31T08:26:12.830Z,30.10
2019-03-31T08:28:59.341Z,30.50
2019-03-31T08:31:46.177Z,31.20
2019-03-31T08:34:33.001Z,31.30
2019-03-31T08:37:19.518Z,31.90
2019-03-31T08:40:06.233Z,33.00
2019-03-31T08:42:53.052Z,33.70
2019-03-31T08:45:39.814Z,33.30
2019-03-31T08:48:26.667Z,31.40
2019-03-31T08:51:13.444Z,30.60
2019-03-31T08:54:00.023Z,29.90
2019-03-31T08:56:46.485Z,28.50
2019-03-31T08:59:33.025Z,26.00
2019-03-31T09:02:25.401Z,24.10
2019-03-31T09:05:12.199Z,22.70
2019-03-31T09:07:58.713Z,21.50
2019-03-31T09:10:45.213Z,20.80
2019-03-31T09:13:32.005Z,20.10
2019-03-31T09:16:18.469Z,19.50
2019-03-31T09:19:05.055Z,19.10
2019-03-31T09:21:51.570Z,18.80
2019-03-31T09:24:38.382Z,18.60
2019-03-31T09:27:25.210Z,18.50
2019-03-31T09:30:11.970Z,18.10
2019-03-31T09:32:58.658Z,18.20
2019-03-31T09:35:45.221Z,18.40
2019-03-31T09:38:32.061Z,18.60
2019-03-31T09:41:18.556Z,18.50
2019-03-31T09:44:05.114Z,18.50
2019-03-31T09:46:51.861Z,18.60
2019-03-31T09:49:38.377Z,18.60
2019-03-31T09:52:24.890Z,18.60
2019-03-31T09:55:11.690Z,18.50
2019-03-31T09:57:58.144Z,18.50
2019-03-31T10:00:45.002Z,18.50
2019-03-31T10:03:31.865Z,18.60
2019-03-31T10:06:29.508Z,18.80
2019-03-31T10:09:07.205Z,18.80
2019-03-31T10:13:50.691Z,18.90
2019-03-31T10:16:37.337Z,18.90
2019-03-31T10:19:23.889Z,18.80
2019-03-31T10:22:10.729Z,18.70
2019-03-31T10:24:57.363Z,18.80
2019-03-31T10:27:43.905Z,18.80
2019-03-31T10:30:30.401Z,18.80
2019-03-31T10:33:17.318Z,18.70
2019-03-31T10:36:03.848Z,18.80
2019-03-31T10:38:50.688Z,18.80
2019-03-31T10:41:37.280Z,18.80
2019-03-31T10:44:23.849Z,18.80
2019-03-31T10:47:10.657Z,18.80
2019-03-31T10:49:57.574Z,18.70
2019-03-31T10:52:44.313Z,18.80
2019-03-31T10:55:31.385Z,18.80
2019-03-31T10:58:17.969Z,18.80
2019-03-31T11:01:04.493Z,18.90
2019-03-31T11:03:51.258Z,18.90
2019-03-31T11:06:37.912Z,18.90
2019-03-31T11:09:24.691Z,19.00
2019-03-31T11:12:11.429Z,19.20
2019-03-31T11:14:58.349Z,19.20
2019-03-31T11:17:45.133Z,19.20
2019-03-31T11:20:31.621Z,19.20
2019-03-31T11:23:19.620Z,19.20
2019-03-31T11:26:07.417Z,19.30
2019-03-31T11:28:53.997Z,19.20
2019-03-31T11:31:40.821Z,17.80
2019-03-31T11:34:27.280Z,19.00
2019-03-31T11:37:14.189Z,19.00
2019-03-31T11:40:00.841Z,19.10
2019-03-31T11:42:47.569Z,19.20
2019-03-31T11:45:34.381Z,19.20
2019-03-31T11:48:20.957Z,19.20
2019-03-31T11:51:07.466Z,19.30
2019-03-31T11:53:54.193Z,19.30
2019-03-31T11:56:40.787Z,19.40
2019-03-31T11:59:27.495Z,19.30
2019-03-31T12:02:26.427Z,19.40
2019-03-31T12:05:06.150Z,19.40
2019-03-31T12:07:51.793Z,19.60
2019-03-31T12:10:38.530Z,20.00
2019-03-31T12:13:25.093Z,20.10
2019-03-31T12:16:11.908Z,20.20
2019-03-31T12:18:58.504Z,20.10
2019-03-31T12:21:45.017Z,20.00
2019-03-31T12:24:31.582Z,19.80
2019-03-31T12:27:18.178Z,19.70
2019-03-31T12:30:04.913Z,19.50
2019-03-31T12:32:51.754Z,19.40
2019-03-31T12:35:38.569Z,19.40
2019-03-31T12:38:25.333Z,19.40
2019-03-31T12:41:11.906Z,19.50
2019-03-31T12:43:58.397Z,19.70
2019-03-31T12:46:44.886Z,20.00
2019-03-31T12:49:32.649Z,20.30
2019-03-31T12:52:19.442Z,20.50
2019-03-31T12:55:05.937Z,20.80
2019-03-31T12:57:52.494Z,21.00
2019-03-31T13:00:39.263Z,21.20
2019-03-31T13:03:25.829Z,20.80
2019-03-31T13:06:12.647Z,20.50
2019-03-31T13:09:00.292Z,20.50
2019-03-31T13:11:50.199Z,20.50
2019-03-31T13:14:35.038Z,20.20
2019-03-31T13:17:21.703Z,20.30
2019-03-31T13:20:08.240Z,20.10
2019-03-31T13:22:55.005Z,19.80
2019-03-31T13:25:41.881Z,19.70
2019-03-31T13:28:28.613Z,19.70
2019-03-31T13:31:15.207Z,19.70
2019-03-31T13:34:02.200Z,19.80
2019-03-31T13:36:48.738Z,19.80
2019-03-31T13:39:35.550Z,20.00
2019-03-31T13:42:22.140Z,20.20
2019-03-31T13:45:08.932Z,20.30
2019-03-31T13:47:58.550Z,20.30
2019-03-31T13:50:44.022Z,20.30
2019-03-31T13:53:30.819Z,20.50
2019-03-31T13:56:18.085Z,20.40
2019-03-31T13:59:04.938Z,20.40
2019-03-31T14:01:51.405Z,20.20
2019-03-31T14:04:51.054Z,20.10
2019-03-31T14:07:26.610Z,20.00
2019-03-31T14:10:13.317Z,19.80
2019-03-31T14:12:59.825Z,19.50
2019-03-31T14:15:46.583Z,19.40
2019-03-31T14:18:33.446Z,19.40
2019-03-31T14:21:20.293Z,19.30
2019-03-31T14:24:06.869Z,19.30
2019-03-31T14:26:53.721Z,19.40
2019-03-31T14:29:42.442Z,19.50
2019-03-31T14:32:28.702Z,19.60
2019-03-31T14:35:15.288Z,19.60
2019-03-31T14:38:01.785Z,19.60
2019-03-31T14:40:48.296Z,19.70
2019-03-31T14:43:34.861Z,19.70
2019-03-31T14:46:21.626Z,19.50
2019-03-31T14:49:08.171Z,19.60
2019-03-31T14:51:55.061Z,19.70
2019-03-31T14:54:41.849Z,19.80
2019-03-31T14:57:28.421Z,19.60
2019-03-31T15:00:15.549Z,19.60
2019-03-31T15:03:02.340Z,19.80
2019-03-31T15:05:49.065Z,20.00
2019-03-31T15:08:35.833Z,20.00
2019-03-31T15:11:22.698Z,20.20
2019-03-31T15:14:09.469Z,20.20
2019-03-31T15:16:56.273Z,20.40
2019-03-31T15:19:42.755Z,20.30
2019-03-31T15:22:29.209Z,20.00
2019-03-31T15:25:16.029Z,19.80
2019-03-31T15:28:02.844Z,19.60
2019-03-31T15:30:49.630Z,19.70
2019-03-31T15:33:36.197Z,19.70
2019-03-31T15:36:23.017Z,19.80
2019-03-31T15:39:09.610Z,19.90
2019-03-31T15:41:56.541Z,19.80
2019-03-31T15:44:43.363Z,19.50
2019-03-31T15:47:29.845Z,19.30
2019-03-31T15:50:16.413Z,19.00
2019-03-31T15:53:03.285Z,18.70
2019-03-31T15:55:49.803Z,18.50
2019-03-31T15:58:36.371Z,18.40
2019-03-31T16:01:22.929Z,18.00
2019-03-31T16:04:09.497Z,17.80
2019-03-31T16:06:56.312Z,17.70
2019-03-31T16:09:42.931Z,17.60
2019-03-31T16:12:29.393Z,17.40
2019-03-31T16:15:16.212Z,17.10
2019-03-31T16:18:02.774Z,16.90
2019-03-31T16:20:49.375Z,16.60
2019-03-31T16:23:36.017Z,16.40
2019-03-31T16:26:22.788Z,16.20
2019-03-31T16:29:09.309Z,16.10
2019-03-31T16:31:55.848Z,16.00
2019-03-31T16:34:42.617Z,16.00
2019-03-31T16:37:29.420Z,15.90
2019-03-31T16:40:16.270Z,15.80
2019-03-31T16:43:03.154Z,15.70
2019-03-31T16:45:49.656Z,16.20
2019-03-31T16:48:37.362Z,15.60
2019-03-31T16:51:24.256Z,15.60
2019-03-31T16:54:10.798Z,15.50
2019-03-31T16:56:57.558Z,15.40
2019-03-31T16:59:44.510Z,15.30
2019-03-31T17:02:31.018Z,15.20
2019-03-31T17:05:21.924Z,15.10
2019-03-31T17:08:05.744Z,15.10
2019-03-31T17:10:52.236Z,15.00
2019-03-31T17:13:38.749Z,15.00
2019-03-31T17:16:25.560Z,14.90
2019-03-31T17:19:12.077Z,14.90
2019-03-31T17:21:59.934Z,14.80
2019-03-31T17:24:46.570Z,14.80
2019-03-31T17:27:33.030Z,14.80
2019-03-31T17:30:19.517Z,14.80
2019-03-31T17:33:06.098Z,14.80
2019-03-31T17:35:52.573Z,14.80
2019-03-31T17:38:39.138Z,14.80
2019-03-31T17:41:25.698Z,14.70
2019-03-31T17:44:13.545Z,14.70
2019-03-31T17:47:00.041Z,14.70
2019-03-31T17:49:46.601Z,14.60
2019-03-31T17:52:33.370Z,14.60
2019-03-31T17:55:19.977Z,14.60
2019-03-31T17:58:06.925Z,14.50
2019-03-31T18:00:53.730Z,14.50
2019-03-31T18:03:40.509Z,14.50
2019-03-31T18:06:27.024Z,14.40
2019-03-31T18:09:13.561Z,14.40
2019-03-31T18:12:00.244Z,14.20
2019-03-31T18:14:46.933Z,14.20
2019-03-31T18:17:33.430Z,14.10
2019-03-31T18:20:19.913Z,14.00
2019-03-31T18:23:06.506Z,13.90
2019-03-31T18:25:53.328Z,13.70
2019-03-31T18:28:39.873Z,13.60
2019-03-31T18:31:26.462Z,13.50
2019-03-31T18:34:13.245Z,13.30
2019-03-31T18:36:59.965Z,13.20
2019-03-31T18:39:46.853Z,13.20
2019-03-31T18:42:33.625Z,13.20
2019-03-31T18:45:20.381Z,13.10
2019-03-31T18:48:06.897Z,13.00
2019-03-31T18:50:53.710Z,13.00
2019-03-31T18:53:45.133Z,12.90
2019-03-31T18:56:49.785Z,12.80
2019-03-31T18:59:55.194Z,12.60
2019-03-31T19:02:43.670Z,12.50
2019-03-31T19:05:32.197Z,12.40
2019-03-31T19:08:23.613Z,12.30
2019-03-31T19:11:14.918Z,12.30
2019-03-31T19:14:15.226Z,12.20
2019-03-31T19:17:09.705Z,12.20
2019-03-31T19:19:58.096Z,12.10
2019-03-31T19:22:52.287Z,12.10
2019-03-31T19:25:46.625Z,12.00
2019-03-31T19:28:46.794Z,11.90
2019-03-31T19:31:37.982Z,11.90
2019-03-31T19:34:29.535Z,11.90
2019-03-31T19:37:34.057Z,11.80
2019-03-31T19:40:28.545Z,11.70
2019-03-31T19:43:16.812Z,11.70
2019-03-31T19:46:08.222Z,11.70
2019-03-31T19:48:56.686Z,11.70
2019-03-31T19:51:54.129Z,11.60
2019-03-31T19:54:45.424Z,11.60
2019-03-31T19:57:43.036Z,11.60
2019-03-31T20:00:31.289Z,11.50
2019-03-31T20:03:22.517Z,11.40
2019-03-31T20:06:13.685Z,11.40
2019-03-31T20:09:05.955Z,11.40
2019-03-31T20:12:03.713Z,11.40
2019-03-31T20:15:01.080Z,11.30
2019-03-31T20:17:52.509Z,11.30
2019-03-31T20:20:40.940Z,11.20
2019-03-31T20:23:32.237Z,11.10
2019-03-31T20:26:26.333Z,11.20
2019-03-31T20:29:23.510Z,11.10
2019-03-31T20:32:27.216Z,11.20
2019-03-31T20:35:31.779Z,11.10
2019-03-31T20:38:23.325Z,11.00
2019-03-31T20:41:17.394Z,11.00
2019-03-31T20:44:03.945Z,11.00
2019-03-31T20:46:50.531Z,11.00
2019-03-31T20:49:37.259Z,11.00
2019-03-31T20:52:23.809Z,10.90
2019-03-31T20:55:16.534Z,10.80
2019-03-31T20:57:59.273Z,11.00
2019-03-31T21:00:46.060Z,11.20
2019-03-31T21:03:32.873Z,11.30
2019-03-31T21:06:19.521Z,11.30
2019-03-31T21:09:06.421Z,11.30
2019-03-31T21:11:53.146Z,11.30
2019-03-31T21:14:39.785Z,11.20
2019-03-31T21:17:26.813Z,11.20
2019-03-31T21:20:13.374Z,11.10
2019-03-31T21:23:00.245Z,11.10
2019-03-31T21:25:47.067Z,11.00
2019-03-31T21:28:33.833Z,10.80
2019-03-31T21:31:20.497Z,10.70
2019-03-31T21:34:07.061Z,10.60
2019-03-31T21:36:53.830Z,10.50
2019-03-31T21:39:40.689Z,10.40
2019-03-31T21:42:27.228Z,10.30
2019-03-31T21:45:13.755Z,10.40
2019-03-31T21:48:00.413Z,10.30
2019-03-31T21:50:47.253Z,10.30
2019-03-31T21:53:34.003Z,10.30
2019-03-31T21:56:20.931Z,10.20
2019-03-31T21:59:07.414Z,10.10
2019-03-31T22:01:53.915Z,10.20
2019-03-31T22:04:40.570Z,10.10
2019-03-31T22:07:27.329Z,10.10
2019-03-31T22:10:15.125Z,10.10
2019-03-31T22:13:01.769Z,10.10
2019-03-31T22:15:48.472Z,10.00
2019-03-31T22:18:35.350Z,10.00
2019-03-31T22:21:22.021Z,9.90
2019-03-31T22:24:08.530Z,9.90
2019-03-31T22:26:55.393Z,9.90
2019-03-31T22:29:41.933Z,9.90
2019-03-31T22:32:30.586Z,9.90
2019-03-31T22:35:17.046Z,9.80
2019-03-31T22:38:03.633Z,9.70
2019-03-31T22:40:50.125Z,9.70
2019-03-31T22:43:36.894Z,9.70
2019-03-31T22:46:23.403Z,9.60
2019-03-31T22:49:11.353Z,9.60
2019-03-31T22:51:57.881Z,9.50
2019-03-31T22:54:44.624Z,9.50
2019-03-31T22:57:31.561Z,9.50
2019-03-31T23:00:19.717Z,9.40
2019-03-31T23:03:07.840Z,9.40
2019-03-31T23:05:54.465Z,9.40
2019-03-31T23:08:41.294Z,9.30
2019-03-31T23:11:27.762Z,9.30
2019-03-31T23:14:21.109Z,9.30
2019-03-31T23:17:08.877Z,9.30
2019-03-31T23:19:55.802Z,9.30
2019-03-31T23:22:42.384Z,9.20
2019-03-31T23:25:29.109Z,9.20
2019-03-31T23:28:21.005Z,9.20
2019-03-31T23:31:07.743Z,9.20
2019-03-31T23:33:54.184Z,9.20
2019-03-31T23:36:40.722Z,9.20
2019-03-31T23:39:27.645Z,9.20
2019-03-31T23:42:14.421Z,9.20
2019-03-31T23:45:01.829Z,9.10
2019-03-31T23:47:48.437Z,9.20
2019-03-31T23:50:35.979Z,9.10
2019-03-31T23:53:22.789Z,9.10
2019-03-31T23:56:09.627Z,9.10
2019-03-31T23:58:56.170Z,9.00
